createdAt,value
2023-09-23T00:01:58.853Z,1.90
2023-09-23T00:04:44.456Z,1.60
2023-09-23T00:07:32.247Z,1.90
2023-09-23T00:10:17.553Z,1.90
2023-09-23T00:13:03.387Z,1.80
2023-09-23T00:15:51.093Z,1.83
2023-09-23T00:18:37.112Z,1.87
2023-09-23T00:21:22.485Z,1.67
2023-09-23T00:24:09.725Z,1.70
2023-09-23T00:27:00.645Z,2.10
2023-09-23T00:29:47.145Z,1.80
2023-09-23T00:32:34.005Z,1.63
2023-09-23T00:35:20.632Z,1.50
2023-09-23T00:38:07.857Z,1.50
2023-09-23T00:40:53.999Z,1.90
2023-09-23T00:43:39.466Z,1.70
2023-09-23T00:46:25.067Z,1.90
2023-09-23T00:49:12.226Z,1.90
2023-09-23T00:51:57.738Z,1.70
2023-09-23T00:54:44.038Z,1.80
2023-09-23T00:57:29.613Z,1.70
2023-09-23T01:00:24.796Z,1.53
2023-09-23T01:03:10.470Z,1.60
2023-09-23T01:06:10.009Z,1.50
2023-09-23T01:08:58.612Z,1.27
2023-09-23T01:11:44.328Z,1.70
2023-09-23T01:14:30.143Z,1.57
2023-09-23T01:17:17.123Z,1.73
2023-09-23T01:20:13.566Z,1.43
2023-09-23T01:22:59.469Z,1.60
2023-09-23T01:25:45.413Z,1.70
2023-09-23T01:28:33.674Z,1.80
2023-09-23T01:31:22.686Z,1.50
2023-09-23T01:34:08.387Z,1.50
2023-09-23T01:36:55.234Z,1.40
2023-09-23T01:39:42.430Z,1.50
2023-09-23T01:42:29.928Z,1.40
2023-09-23T01:45:15.502Z,1.40
2023-09-23T01:48:01.157Z,1.50
2023-09-23T01:50:49.018Z,1.50
2023-09-23T01:53:34.434Z,1.50
2023-09-23T01:56:19.668Z,1.23
2023-09-23T01:59:05.158Z,1.40
2023-09-23T02:01:50.640Z,1.53
2023-09-23T02:04:38.445Z,1.40
2023-09-23T02:07:23.713Z,1.30
2023-09-23T02:10:16.167Z,1.20
2023-09-23T02:13:09.794Z,1.23
2023-09-23T02:15:56.702Z,1.10
2023-09-23T02:18:47.036Z,1.10
2023-09-23T02:21:32.410Z,1.23
2023-09-23T02:24:17.690Z,1.30
2023-09-23T02:27:04.696Z,1.20
2023-09-23T02:29:50.948Z,1.40
2023-09-23T02:32:42.241Z,1.27
2023-09-23T02:35:27.821Z,1.30
2023-09-23T02:38:13.202Z,1.10
2023-09-23T02:41:03.813Z,1.20
2023-09-23T02:43:49.244Z,1.10
2023-09-23T02:46:35.218Z,1.47
2023-09-23T02:49:20.547Z,1.10
2023-09-23T02:52:07.461Z,1.10
2023-09-23T02:54:55.855Z,0.97
2023-09-23T02:57:42.537Z,1.20
2023-09-23T03:00:31.662Z,1.10
2023-09-23T03:03:20.595Z,1.10
2023-09-23T03:06:08.385Z,1.50
2023-09-23T03:08:59.237Z,1.13
2023-09-23T03:11:50.241Z,1.00
2023-09-23T03:14:41.654Z,1.23
2023-09-23T03:17:30.101Z,1.00
2023-09-23T03:20:15.773Z,1.17
2023-09-23T03:23:01.395Z,1.10
2023-09-23T03:25:48.658Z,1.40
2023-09-23T03:28:40.859Z,1.17
2023-09-23T03:31:27.319Z,1.13
2023-09-23T03:34:15.953Z,1.30
2023-09-23T03:37:11.491Z,1.13
2023-09-23T03:39:57.600Z,1.00
2023-09-23T03:42:43.706Z,1.07
2023-09-23T03:45:34.578Z,0.83
2023-09-23T03:48:20.953Z,0.97
2023-09-23T03:51:08.233Z,0.93
2023-09-23T03:53:53.932Z,1.00
2023-09-23T03:56:42.803Z,0.80
2023-09-23T03:59:28.028Z,1.03
2023-09-23T04:02:13.283Z,0.80
2023-09-23T04:04:58.698Z,1.00
2023-09-23T04:07:51.585Z,1.00
2023-09-23T04:10:41.103Z,0.75
2023-09-23T04:13:27.172Z,1.10
2023-09-23T04:16:12.687Z,1.00
2023-09-23T04:18:57.923Z,1.07
2023-09-23T04:21:43.436Z,0.80
2023-09-23T04:24:28.770Z,1.00
2023-09-23T04:27:14.103Z,1.00
2023-09-23T04:30:01.725Z,0.87
2023-09-23T04:32:48.044Z,1.00
2023-09-23T04:35:36.277Z,0.90
2023-09-23T04:38:22.081Z,0.77
2023-09-23T04:41:08.271Z,1.10
2023-09-23T04:43:53.771Z,1.00
2023-09-23T04:46:39.706Z,0.93
2023-09-23T04:49:25.316Z,0.67
2023-09-23T04:52:11.448Z,1.00
2023-09-23T04:54:56.688Z,0.93
2023-09-23T04:57:42.259Z,1.07
2023-09-23T05:00:28.213Z,0.80
2023-09-23T05:03:13.804Z,0.80
2023-09-23T05:05:59.817Z,0.80
2023-09-23T05:08:45.674Z,0.90
2023-09-23T05:11:31.906Z,1.00
2023-09-23T05:14:18.685Z,1.10
2023-09-23T05:17:07.028Z,0.77
2023-09-23T05:19:52.632Z,1.03
2023-09-23T05:22:38.084Z,0.90
2023-09-23T05:25:28.289Z,0.80
2023-09-23T05:28:14.194Z,0.83
2023-09-23T05:31:00.305Z,0.93
2023-09-23T05:33:45.955Z,0.80
2023-09-23T05:36:32.729Z,0.83
2023-09-23T05:39:21.337Z,0.80
2023-09-23T05:42:07.036Z,1.00
2023-09-23T05:44:52.275Z,0.87
2023-09-23T05:47:37.880Z,1.20
2023-09-23T05:50:24.561Z,1.40
2023-09-23T05:53:10.138Z,1.73
2023-09-23T05:55:56.218Z,1.90
2023-09-23T05:58:42.134Z,1.60
2023-09-23T06:01:27.531Z,1.43
2023-09-23T06:04:12.994Z,1.60
2023-09-23T06:06:58.468Z,1.20
2023-09-23T06:09:45.121Z,1.40
2023-09-23T06:12:32.343Z,1.23
2023-09-23T06:15:18.037Z,1.23
2023-09-23T06:18:03.630Z,1.37
2023-09-23T06:20:48.808Z,1.00
2023-09-23T06:23:34.326Z,1.40
2023-09-23T06:26:19.558Z,1.23
2023-09-23T06:29:06.069Z,1.53
2023-09-23T06:31:52.656Z,1.40
2023-09-23T06:34:37.915Z,1.60
2023-09-23T06:37:24.285Z,1.40
2023-09-23T06:40:09.787Z,1.40
2023-09-23T06:42:55.401Z,1.23
2023-09-23T06:45:40.994Z,1.40
2023-09-23T06:48:27.721Z,1.40
2023-09-23T06:51:13.669Z,1.57
2023-09-23T06:53:58.918Z,1.17
2023-09-23T06:56:44.685Z,1.43
2023-09-23T06:59:31.094Z,1.00
2023-09-23T07:02:16.888Z,1.00
2023-09-23T07:05:05.457Z,0.87
2023-09-23T07:07:51.890Z,0.73
2023-09-23T07:10:39.892Z,1.00
2023-09-23T07:13:26.276Z,1.00
2023-09-23T07:16:16.303Z,1.00
2023-09-23T07:19:02.502Z,1.00
2023-09-23T07:21:48.418Z,0.83
2023-09-23T07:24:37.012Z,1.40
2023-09-23T07:27:23.801Z,1.70
2023-09-23T07:30:09.605Z,1.50
2023-09-23T07:32:55.362Z,1.13
2023-09-23T07:35:40.774Z,1.77
2023-09-23T07:38:26.238Z,1.50
2023-09-23T07:41:11.725Z,1.50
2023-09-23T07:43:58.205Z,1.37
2023-09-23T07:46:44.758Z,1.80
2023-09-23T07:49:30.427Z,4.00
2023-09-23T07:52:16.523Z,6.30
2023-09-23T07:55:03.648Z,6.60
2023-09-23T07:57:49.192Z,43.63
2023-09-23T08:00:35.545Z,54.33
2023-09-23T08:03:21.504Z,35.27
2023-09-23T08:06:06.831Z,45.90
2023-09-23T08:08:52.249Z,57.23
2023-09-23T08:11:37.736Z,57.53
2023-09-23T08:14:23.661Z,48.17
2023-09-23T08:17:09.189Z,20.33
2023-09-23T08:19:54.671Z,43.37
2023-09-23T08:22:41.770Z,37.53
2023-09-23T08:25:27.378Z,36.30
2023-09-23T08:28:14.817Z,36.17
2023-09-23T08:31:00.376Z,30.97
2023-09-23T08:33:47.225Z,26.57
2023-09-23T08:36:32.759Z,24.57
2023-09-23T08:39:19.505Z,24.87
2023-09-23T08:42:06.041Z,24.37
2023-09-23T08:44:52.296Z,22.30
2023-09-23T08:47:39.310Z,21.60
2023-09-23T08:50:26.359Z,16.77
2023-09-23T08:53:14.537Z,15.37
2023-09-23T08:56:05.366Z,14.73
2023-09-23T08:58:51.807Z,10.47
2023-09-23T09:01:44.714Z,5.67
2023-09-23T09:04:30.472Z,8.88
2023-09-23T09:07:16.974Z,9.57
2023-09-23T09:10:03.757Z,9.70
2023-09-23T09:12:49.588Z,7.30
2023-09-23T09:15:36.589Z,8.17
2023-09-23T09:18:22.332Z,6.67
2023-09-23T09:21:09.712Z,6.93
2023-09-23T09:23:55.260Z,4.20
2023-09-23T09:26:40.707Z,5.13
2023-09-23T09:29:26.352Z,5.00
2023-09-23T09:32:12.560Z,4.40
2023-09-23T09:35:02.704Z,4.30
2023-09-23T09:37:55.454Z,3.80
2023-09-23T09:40:48.399Z,3.73
2023-09-23T09:43:34.846Z,3.70
2023-09-23T09:46:22.007Z,3.40
2023-09-23T09:49:08.982Z,2.10
2023-09-23T09:51:55.064Z,2.20
2023-09-23T09:54:41.351Z,1.93
2023-09-23T09:57:30.389Z,1.63
2023-09-23T10:00:32.283Z,1.40
2023-09-23T10:03:17.790Z,1.10
2023-09-23T10:06:03.603Z,1.03
2023-09-23T10:08:50.236Z,1.00
2023-09-23T10:11:36.845Z,1.20
2023-09-23T10:14:22.319Z,1.00
2023-09-23T10:17:09.268Z,1.00
2023-09-23T10:19:57.259Z,0.93
2023-09-23T10:22:54.089Z,0.93
2023-09-23T10:25:41.928Z,0.80
2023-09-23T10:28:32.034Z,0.90
2023-09-23T10:31:17.728Z,0.80
2023-09-23T10:34:07.656Z,0.60
2023-09-23T10:36:52.671Z,0.80
2023-09-23T10:39:44.663Z,1.30
2023-09-23T10:42:34.443Z,0.90
2023-09-23T10:45:21.898Z,1.10
2023-09-23T10:48:10.129Z,0.60
2023-09-23T10:50:55.835Z,1.43
2023-09-23T10:53:43.332Z,1.27
2023-09-23T10:56:29.236Z,0.70
2023-09-23T10:59:15.034Z,0.80
2023-09-23T11:02:00.589Z,0.73
2023-09-23T11:04:47.768Z,0.77
2023-09-23T11:07:34.464Z,0.90
2023-09-23T11:10:19.938Z,0.60
2023-09-23T11:13:06.667Z,0.63
2023-09-23T11:15:52.426Z,0.83
2023-09-23T11:18:38.772Z,0.87
2023-09-23T11:21:24.209Z,0.80
2023-09-23T11:24:09.989Z,0.80
2023-09-23T11:26:55.512Z,0.77
2023-09-23T11:29:40.918Z,0.77
2023-09-23T11:32:27.903Z,1.90
2023-09-23T11:35:15.655Z,1.53
2023-09-23T11:38:01.307Z,1.23
2023-09-23T11:40:48.113Z,1.00
2023-09-23T11:43:33.797Z,0.80
2023-09-23T11:46:21.146Z,0.70
2023-09-23T11:49:06.401Z,0.90
2023-09-23T11:51:51.614Z,1.00
2023-09-23T11:54:36.993Z,0.70
2023-09-23T11:57:22.664Z,0.80
2023-09-23T12:00:11.096Z,1.00
2023-09-23T12:02:57.140Z,0.80
2023-09-23T12:05:43.160Z,0.73
2023-09-23T12:08:28.424Z,0.70
2023-09-23T12:11:13.865Z,0.57
2023-09-23T12:13:59.238Z,0.73
2023-09-23T12:16:45.509Z,0.73
2023-09-23T12:19:30.758Z,0.77
2023-09-23T12:22:17.398Z,0.80
2023-09-23T12:25:02.785Z,0.80
2023-09-23T12:27:48.111Z,0.67
2023-09-23T12:30:33.761Z,0.83
2023-09-23T12:33:19.197Z,0.67
2023-09-23T12:36:04.698Z,0.70
2023-09-23T12:38:50.368Z,0.77
2023-09-23T12:41:36.953Z,0.77
2023-09-23T12:44:22.286Z,0.87
2023-09-23T12:47:08.124Z,0.70
2023-09-23T12:49:53.665Z,0.87
2023-09-23T12:52:39.195Z,0.80
2023-09-23T12:55:24.639Z,0.90
2023-09-23T12:58:09.925Z,0.60
2023-09-23T13:00:55.525Z,0.80
2023-09-23T13:03:41.576Z,1.20
2023-09-23T13:06:27.300Z,0.77
2023-09-23T13:09:12.641Z,1.00
2023-09-23T13:11:58.522Z,1.00
2023-09-23T13:14:43.889Z,0.70
2023-09-23T13:17:29.369Z,0.93
2023-09-23T13:20:14.761Z,0.70
2023-09-23T13:23:01.035Z,0.90
2023-09-23T13:25:48.033Z,0.73
2023-09-23T13:28:34.428Z,0.80
2023-09-23T13:31:20.335Z,1.03
2023-09-23T13:34:07.285Z,0.90
2023-09-23T13:36:53.151Z,0.80
2023-09-23T13:39:38.483Z,0.90
2023-09-23T13:42:24.012Z,0.67
2023-09-23T13:45:09.654Z,1.00
2023-09-23T13:47:55.388Z,1.07
2023-09-23T13:50:40.672Z,0.80
2023-09-23T13:53:26.115Z,0.80
2023-09-23T13:56:11.412Z,0.90
2023-09-23T13:58:56.752Z,0.90
2023-09-23T14:01:43.066Z,0.80
2023-09-23T14:04:30.267Z,0.70
2023-09-23T14:07:15.481Z,0.73
2023-09-23T14:10:14.579Z,0.70
2023-09-23T14:13:06.067Z,0.80
2023-09-23T14:15:51.563Z,1.00
2023-09-23T14:18:37.602Z,0.70
2023-09-23T14:21:23.457Z,0.80
2023-09-23T14:24:09.143Z,0.67
2023-09-23T14:26:54.621Z,0.70
2023-09-23T14:29:40.876Z,0.70
2023-09-23T14:32:26.426Z,0.63
2023-09-23T14:35:12.181Z,0.77
2023-09-23T14:37:57.222Z,1.03
2023-09-23T14:40:42.735Z,0.60
2023-09-23T14:43:28.049Z,0.90
2023-09-23T14:46:13.706Z,1.00
2023-09-23T14:48:58.996Z,0.83
2023-09-23T14:51:44.320Z,0.80
2023-09-23T14:54:29.851Z,0.87
2023-09-23T14:57:15.296Z,1.10
2023-09-23T15:00:00.887Z,1.70
2023-09-23T15:02:47.008Z,2.00
2023-09-23T15:05:32.700Z,2.10
2023-09-23T15:08:18.290Z,1.80
2023-09-23T15:11:04.064Z,1.43
2023-09-23T15:13:49.559Z,1.67
2023-09-23T15:16:35.286Z,1.30
2023-09-23T15:19:21.130Z,1.30
2023-09-23T15:22:06.571Z,1.40
2023-09-23T15:24:52.824Z,1.40
2023-09-23T15:27:41.331Z,1.17
2023-09-23T15:30:26.792Z,0.97
2023-09-23T15:33:12.660Z,1.20
2023-09-23T15:35:58.214Z,1.00
2023-09-23T15:38:43.694Z,1.23
2023-09-23T15:41:28.885Z,1.10
2023-09-23T15:44:14.446Z,1.13
2023-09-23T15:46:59.613Z,1.10
2023-09-23T15:49:45.156Z,1.00
2023-09-23T15:52:30.715Z,0.93
2023-09-23T15:55:17.165Z,1.10
2023-09-23T15:58:02.782Z,1.00
2023-09-23T16:00:48.731Z,1.00
2023-09-23T16:03:35.100Z,0.97
2023-09-23T16:06:20.698Z,1.10
2023-09-23T16:09:06.152Z,0.90
2023-09-23T16:11:51.780Z,0.90
2023-09-23T16:14:37.241Z,1.10
2023-09-23T16:17:22.689Z,1.30
2023-09-23T16:20:09.058Z,1.17
2023-09-23T16:22:54.548Z,1.23
2023-09-23T16:25:40.417Z,1.10
2023-09-23T16:28:25.431Z,1.10
2023-09-23T16:31:10.839Z,0.87
2023-09-23T16:33:58.044Z,1.10
2023-09-23T16:36:43.382Z,1.00
2023-09-23T16:39:29.919Z,1.00
2023-09-23T16:42:15.776Z,1.70
2023-09-23T16:45:01.438Z,2.00
2023-09-23T16:47:47.315Z,2.07
2023-09-23T16:50:32.499Z,2.90
2023-09-23T16:53:17.996Z,2.43
2023-09-23T16:56:03.386Z,2.00
2023-09-23T16:58:48.803Z,1.80
2023-09-23T17:01:34.278Z,1.90
2023-09-23T17:04:19.544Z,1.60
2023-09-23T17:07:05.131Z,1.63
2023-09-23T17:09:50.623Z,1.70
2023-09-23T17:12:36.501Z,2.10
2023-09-23T17:15:22.582Z,2.10
2023-09-23T17:18:08.583Z,1.90
2023-09-23T17:20:54.191Z,1.73
2023-09-23T17:23:39.394Z,1.40
2023-09-23T17:26:24.722Z,1.80
2023-09-23T17:29:10.186Z,1.50
2023-09-23T17:31:55.475Z,1.40
2023-09-23T17:34:40.954Z,1.60
2023-09-23T17:37:26.243Z,1.80
2023-09-23T17:40:11.682Z,1.50
2023-09-23T17:42:57.363Z,1.40
2023-09-23T17:45:42.713Z,1.20
2023-09-23T17:48:29.743Z,1.37
2023-09-23T17:51:15.091Z,1.37
2023-09-23T17:54:00.418Z,1.20
2023-09-23T17:56:45.852Z,1.20
2023-09-23T17:59:31.679Z,1.20
2023-09-23T18:02:17.409Z,1.30
2023-09-23T18:05:02.589Z,1.40
2023-09-23T18:07:47.877Z,1.10
2023-09-23T18:10:33.857Z,1.50
2023-09-23T18:18:09.786Z,1.83
2023-09-23T18:20:55.983Z,1.90
2023-09-23T18:23:45.250Z,2.00
2023-09-23T18:26:31.038Z,2.00
2023-09-23T18:29:16.459Z,2.40
2023-09-23T18:32:02.070Z,2.17
2023-09-23T18:34:47.795Z,1.90
2023-09-23T18:37:33.523Z,1.63
2023-09-23T18:40:19.275Z,1.93
2023-09-23T18:43:05.991Z,2.07
2023-09-23T18:45:53.374Z,2.30
2023-09-23T18:48:39.402Z,2.10
2023-09-23T18:51:26.434Z,2.20
2023-09-23T18:54:12.600Z,2.23
2023-09-23T18:57:02.031Z,2.20
2023-09-23T18:59:48.531Z,2.07
2023-09-23T19:02:35.568Z,2.13
2023-09-23T19:05:21.606Z,1.97
2023-09-23T19:08:07.974Z,1.80
2023-09-23T19:10:54.727Z,2.07
2023-09-23T19:13:40.591Z,2.10
2023-09-23T19:16:26.787Z,1.90
2023-09-23T19:19:14.126Z,2.03
2023-09-23T19:22:01.628Z,2.30
2023-09-23T19:24:49.181Z,2.10
2023-09-23T19:27:35.799Z,2.07
2023-09-23T19:30:22.115Z,1.77
2023-09-23T19:33:08.061Z,2.10
2023-09-23T19:35:54.640Z,1.90
2023-09-23T19:38:40.606Z,2.10
2023-09-23T19:41:26.515Z,1.97
2023-09-23T19:44:12.877Z,2.13
2023-09-23T19:46:58.727Z,2.20
2023-09-23T19:49:45.094Z,2.33
2023-09-23T19:52:30.852Z,2.80
2023-09-23T19:55:18.201Z,2.43
2023-09-23T19:58:06.124Z,2.77
2023-09-23T20:00:52.907Z,2.40
2023-09-23T20:03:38.613Z,2.70
2023-09-23T20:06:24.538Z,2.60
2023-09-23T20:09:11.667Z,2.43
2023-09-23T20:11:57.516Z,2.43
2023-09-23T20:14:43.923Z,2.50
2023-09-23T20:17:29.567Z,2.20
2023-09-23T20:20:16.276Z,2.30
2023-09-23T20:23:05.308Z,2.47
2023-09-23T20:25:51.195Z,2.20
2023-09-23T20:28:38.194Z,2.13
2023-09-23T20:31:24.064Z,2.17
2023-09-23T20:34:10.017Z,2.50
2023-09-23T20:36:58.933Z,2.43
2023-09-23T20:39:44.290Z,2.50
2023-09-23T20:42:29.425Z,2.50
2023-09-23T20:45:15.006Z,2.37
2023-09-23T20:48:01.872Z,2.30
2023-09-23T20:50:47.662Z,2.50
2023-09-23T20:53:35.884Z,2.50
2023-09-23T20:56:21.208Z,2.63
2023-09-23T20:59:06.775Z,2.67
2023-09-23T21:01:52.396Z,2.90
2023-09-23T21:04:37.783Z,3.10
2023-09-23T21:07:23.283Z,2.57
2023-09-23T21:10:11.796Z,3.13
2023-09-23T21:12:57.546Z,2.73
2023-09-23T21:15:43.434Z,3.13
2023-09-23T21:18:29.981Z,2.40
2023-09-23T21:21:15.722Z,2.53
2023-09-23T21:24:02.514Z,3.10
2023-09-23T21:26:49.352Z,2.70
2023-09-23T21:29:35.206Z,2.57
2023-09-23T21:32:21.586Z,2.80
2023-09-23T21:35:07.605Z,2.17
2023-09-23T21:37:53.012Z,2.77
2023-09-23T21:40:42.485Z,2.37
2023-09-23T21:43:27.835Z,2.47
2023-09-23T21:46:14.673Z,2.80
2023-09-23T21:49:01.735Z,2.73
2023-09-23T21:51:47.139Z,2.57
2023-09-23T21:54:32.516Z,2.90
2023-09-23T21:57:17.807Z,2.77
2023-09-23T22:00:20.178Z,2.53
2023-09-23T22:03:06.318Z,2.30
2023-09-23T22:05:51.871Z,2.20
2023-09-23T22:08:37.143Z,2.23
2023-09-23T22:11:22.285Z,2.53
2023-09-23T22:14:09.724Z,2.17
2023-09-23T22:16:56.041Z,2.13
2023-09-23T22:19:41.384Z,2.40
2023-09-23T22:22:26.791Z,2.53
2023-09-23T22:25:16.495Z,2.37
2023-09-23T22:28:02.136Z,2.40
2023-09-23T22:30:49.012Z,2.30
2023-09-23T22:33:37.927Z,2.10
2023-09-23T22:36:24.137Z,2.13
2023-09-23T22:39:12.952Z,2.40
2023-09-23T22:41:58.524Z,2.37
2023-09-23T22:44:44.350Z,2.60
2023-09-23T22:47:30.165Z,2.17
2023-09-23T22:50:19.784Z,2.20
2023-09-23T22:53:06.515Z,2.40
2023-09-23T22:55:52.124Z,2.03
2023-09-23T22:58:38.486Z,2.17
2023-09-23T23:01:24.194Z,2.10
2023-09-23T23:04:09.928Z,2.40
2023-09-23T23:06:55.848Z,2.50
2023-09-23T23:09:41.160Z,2.33
2023-09-23T23:12:26.404Z,2.27
2023-09-23T23:15:13.195Z,2.20
2023-09-23T23:17:59.663Z,2.50
2023-09-23T23:20:46.539Z,1.97
2023-09-23T23:23:32.846Z,2.17
2023-09-23T23:26:18.368Z,2.20
2023-09-23T23:29:03.896Z,2.70
2023-09-23T23:31:50.408Z,2.40
2023-09-23T23:34:35.919Z,2.10
2023-09-23T23:37:21.765Z,2.20
2023-09-23T23:40:09.120Z,1.93
2023-09-23T23:42:54.969Z,1.97
2023-09-23T23:45:40.544Z,2.13
2023-09-23T23:48:30.761Z,2.20
2023-09-23T23:51:16.706Z,2.20
2023-09-23T23:54:04.169Z,2.03
2023-09-23T23:56:49.615Z,1.90
2023-09-23T23:59:35.362Z,2.03
